createdAt,value
2022-08-25T00:01:51.012Z,23.67
2022-08-25T00:04:21.298Z,23.66
2022-08-25T00:06:49.295Z,23.65
2022-08-25T00:09:18.918Z,23.62
2022-08-25T00:11:47.151Z,23.60
2022-08-25T00:14:18.373Z,23.56
2022-08-25T00:16:45.486Z,23.54
2022-08-25T00:19:16.914Z,23.50
2022-08-25T00:21:45.323Z,23.44
2022-08-25T00:24:15.000Z,23.39
2022-08-25T00:26:43.917Z,23.38
2022-08-25T00:29:11.545Z,23.36
2022-08-25T00:31:39.339Z,23.38
2022-08-25T00:34:12.262Z,23.42
2022-08-25T00:36:39.473Z,23.44
2022-08-25T00:39:08.173Z,23.44
2022-08-25T00:41:36.742Z,23.43
2022-08-25T00:44:06.349Z,23.43
2022-08-25T00:46:38.586Z,23.44
2022-08-25T00:49:14.675Z,23.42
2022-08-25T00:51:56.614Z,23.39
2022-08-25T00:54:28.444Z,23.36
2022-08-25T00:56:56.821Z,23.37
2022-08-25T00:59:26.521Z,23.34
2022-08-25T01:01:54.172Z,23.30
2022-08-25T01:04:21.107Z,23.27
2022-08-25T01:06:48.965Z,23.28
2022-08-25T01:09:17.217Z,23.26
2022-08-25T01:11:44.991Z,23.24
2022-08-25T01:14:15.257Z,23.24
2022-08-25T01:16:43.920Z,23.21
2022-08-25T01:19:15.417Z,23.21
2022-08-25T01:21:48.746Z,23.20
2022-08-25T01:24:31.465Z,23.19
2022-08-25T01:26:58.678Z,23.17
2022-08-25T01:29:25.767Z,23.15
2022-08-25T01:32:01.342Z,23.13
2022-08-25T01:34:31.965Z,23.11
2022-08-25T01:37:00.280Z,23.08
2022-08-25T01:39:29.524Z,23.06
2022-08-25T01:42:11.623Z,23.03
2022-08-25T01:44:41.780Z,23.02
2022-08-25T01:47:09.004Z,23.01
2022-08-25T01:49:35.995Z,22.99
2022-08-25T01:52:11.614Z,22.97
2022-08-25T01:54:39.065Z,22.92
2022-08-25T01:57:06.201Z,22.91
2022-08-25T01:59:32.988Z,22.90
2022-08-25T02:02:00.139Z,22.88
2022-08-25T02:04:32.075Z,22.84
2022-08-25T02:07:00.957Z,22.81
2022-08-25T02:09:29.988Z,22.78
2022-08-25T02:11:56.913Z,22.77
2022-08-25T02:14:24.128Z,22.76
2022-08-25T02:16:53.240Z,22.75
2022-08-25T02:19:21.115Z,22.71
2022-08-25T02:21:48.588Z,22.70
2022-08-25T02:24:15.744Z,22.66
2022-08-25T02:26:42.331Z,22.66
2022-08-25T02:29:10.358Z,22.65
2022-08-25T02:31:37.951Z,22.61
2022-08-25T02:34:05.446Z,22.59
2022-08-25T02:36:32.439Z,22.59
2022-08-25T02:38:59.636Z,22.60
2022-08-25T02:41:31.347Z,22.59
2022-08-25T02:43:59.463Z,22.58
2022-08-25T02:46:26.324Z,22.57
2022-08-25T02:48:53.347Z,22.57
2022-08-25T02:51:23.223Z,22.56
2022-08-25T02:53:50.381Z,22.53
2022-08-25T02:56:18.719Z,22.54
2022-08-25T02:58:46.143Z,22.51
2022-08-25T03:01:13.406Z,22.51
2022-08-25T03:03:42.175Z,22.49
2022-08-25T03:06:12.605Z,22.50
2022-08-25T03:08:40.151Z,22.49
2022-08-25T03:11:06.982Z,22.48
2022-08-25T03:13:33.909Z,22.49
2022-08-25T03:16:01.306Z,22.49
2022-08-25T03:18:30.527Z,22.48
2022-08-25T03:20:57.512Z,22.48
2022-08-25T03:23:24.829Z,22.46
2022-08-25T03:26:12.224Z,22.46
2022-08-25T03:28:39.198Z,22.45
2022-08-25T03:31:06.144Z,22.42
2022-08-25T03:33:32.800Z,22.43
2022-08-25T03:35:59.764Z,22.41
2022-08-25T03:38:26.818Z,22.44
2022-08-25T03:40:54.362Z,22.44
2022-08-25T03:43:21.560Z,22.41
2022-08-25T03:45:48.540Z,22.40
2022-08-25T03:48:16.827Z,22.39
2022-08-25T03:50:52.078Z,22.36
2022-08-25T03:53:20.549Z,22.37
2022-08-25T03:55:47.722Z,22.36
2022-08-25T03:58:14.776Z,22.32
2022-08-25T04:00:42.231Z,22.30
2022-08-25T04:03:09.070Z,22.27
2022-08-25T04:05:35.877Z,22.22
2022-08-25T04:08:02.842Z,22.15
2022-08-25T04:10:30.285Z,22.08
2022-08-25T04:12:57.265Z,22.05
2022-08-25T04:15:28.491Z,22.03
2022-08-25T04:17:59.207Z,22.02
2022-08-25T04:20:26.020Z,21.98
2022-08-25T04:22:52.678Z,21.94
2022-08-25T04:25:19.387Z,21.91
2022-08-25T04:27:45.946Z,21.90
2022-08-25T04:30:13.277Z,21.87
2022-08-25T04:32:39.810Z,21.83
2022-08-25T04:35:07.527Z,21.81
2022-08-25T04:37:34.427Z,21.81
2022-08-25T04:40:01.447Z,21.77
2022-08-25T04:42:28.386Z,21.76
2022-08-25T04:44:54.902Z,21.74
2022-08-25T04:47:22.204Z,21.74
2022-08-25T04:49:48.985Z,21.71
2022-08-25T04:52:15.818Z,21.68
2022-08-25T04:54:43.896Z,21.65
2022-08-25T04:57:11.080Z,21.65
2022-08-25T04:59:37.706Z,21.65
2022-08-25T05:02:06.600Z,21.64
2022-08-25T05:04:36.261Z,21.63
2022-08-25T05:07:04.272Z,21.65
2022-08-25T05:09:32.593Z,21.66
2022-08-25T05:12:01.313Z,21.67
2022-08-25T05:14:28.732Z,21.68
2022-08-25T05:16:56.582Z,21.68
2022-08-25T05:19:24.601Z,21.71
2022-08-25T05:21:51.680Z,21.72
2022-08-25T05:24:18.905Z,21.74
2022-08-25T05:26:46.009Z,21.78
2022-08-25T05:29:13.079Z,21.81
2022-08-25T05:31:49.561Z,21.83
2022-08-25T05:34:18.857Z,21.84
2022-08-25T05:36:46.179Z,21.86
2022-08-25T05:39:13.288Z,21.89
2022-08-25T05:41:39.949Z,21.92
2022-08-25T05:44:06.917Z,21.95
2022-08-25T05:46:33.893Z,21.99
2022-08-25T05:49:00.523Z,22.07
2022-08-25T05:51:27.119Z,22.17
2022-08-25T05:53:54.136Z,22.26
2022-08-25T05:56:21.513Z,22.33
2022-08-25T05:58:48.642Z,22.42
2022-08-25T06:01:45.756Z,22.51
2022-08-25T06:04:13.575Z,22.59
2022-08-25T06:06:41.044Z,22.69
2022-08-25T06:09:09.521Z,22.77
2022-08-25T06:11:39.747Z,22.87
2022-08-25T06:14:07.637Z,22.93
2022-08-25T06:16:34.457Z,22.99
2022-08-25T06:19:01.308Z,23.03
2022-08-25T06:21:29.279Z,23.09
2022-08-25T06:23:56.209Z,23.13
2022-08-25T06:26:23.475Z,23.16
2022-08-25T06:28:52.206Z,23.17
2022-08-25T06:31:22.621Z,23.18
2022-08-25T06:33:50.154Z,23.19
2022-08-25T06:36:17.134Z,23.21
2022-08-25T06:38:43.781Z,23.22
2022-08-25T06:41:14.007Z,23.23
2022-08-25T06:43:48.065Z,23.26
2022-08-25T06:46:21.614Z,23.28
2022-08-25T06:48:49.256Z,23.34
2022-08-25T06:51:17.937Z,23.41
2022-08-25T06:53:48.955Z,23.49
2022-08-25T06:56:20.013Z,23.58
2022-08-25T06:58:48.166Z,23.66
2022-08-25T07:01:23.525Z,23.74
2022-08-25T07:03:57.805Z,23.83
2022-08-25T07:06:26.696Z,23.91
2022-08-25T07:08:54.185Z,23.98
2022-08-25T07:11:21.556Z,24.06
2022-08-25T07:13:49.110Z,24.14
2022-08-25T07:16:16.757Z,24.20
2022-08-25T07:18:44.676Z,24.26
2022-08-25T07:21:12.820Z,24.33
2022-08-25T07:23:41.188Z,24.38
2022-08-25T07:29:16.768Z,24.55
2022-08-25T07:31:44.464Z,24.62
2022-08-25T07:34:30.107Z,24.69
2022-08-25T07:36:57.751Z,24.76
2022-08-25T07:39:26.465Z,24.82
2022-08-25T07:41:53.744Z,24.86
2022-08-25T07:44:24.562Z,24.91
2022-08-25T07:46:54.969Z,24.96
2022-08-25T07:49:23.831Z,25.00
2022-08-25T07:52:04.643Z,25.04
2022-08-25T07:54:34.055Z,25.10
2022-08-25T07:57:30.010Z,25.17
2022-08-25T07:59:57.005Z,25.22
2022-08-25T08:02:24.831Z,25.26
2022-08-25T08:04:53.532Z,25.32
2022-08-25T08:07:23.796Z,25.37
2022-08-25T08:12:56.970Z,25.52
2022-08-25T08:15:23.947Z,25.57
2022-08-25T08:17:52.591Z,25.65
2022-08-25T08:20:23.380Z,25.72
2022-08-25T08:22:50.516Z,25.79
2022-08-25T08:25:21.316Z,25.86
2022-08-25T08:27:50.991Z,25.92
2022-08-25T08:30:21.807Z,25.99
2022-08-25T08:33:09.299Z,26.05
2022-08-25T08:35:37.230Z,26.13
2022-08-25T08:38:13.505Z,26.20
2022-08-25T08:41:15.264Z,26.26
2022-08-25T08:43:43.726Z,26.34
2022-08-25T08:46:10.644Z,26.41
2022-08-25T08:48:43.135Z,26.47
2022-08-25T08:51:33.496Z,26.56
2022-08-25T08:54:14.910Z,26.63
2022-08-25T08:56:48.229Z,26.71
2022-08-25T08:59:22.531Z,26.78
2022-08-25T09:02:02.889Z,26.83
2022-08-25T09:04:40.411Z,26.91
2022-08-25T09:07:13.100Z,26.95
2022-08-25T09:09:42.463Z,27.00
2022-08-25T09:12:31.626Z,27.10
2022-08-25T09:15:18.698Z,27.16
2022-08-25T09:18:13.906Z,27.23
2022-08-25T09:21:03.142Z,27.30
2022-08-25T09:23:44.676Z,27.40
2022-08-25T09:26:11.835Z,27.47
2022-08-25T09:28:51.360Z,27.54
2022-08-25T09:31:31.975Z,27.61
2022-08-25T09:34:02.586Z,27.69
2022-08-25T09:36:33.242Z,27.76
2022-08-25T09:39:04.249Z,27.84
2022-08-25T09:41:56.879Z,27.92
2022-08-25T09:44:31.410Z,27.97
2022-08-25T09:47:08.154Z,28.03
2022-08-25T09:49:40.160Z,28.10
2022-08-25T09:52:26.214Z,28.15
2022-08-25T09:54:56.018Z,28.22
2022-08-25T09:57:43.804Z,28.31
2022-08-25T10:00:24.195Z,28.40
2022-08-25T10:03:22.882Z,28.48
2022-08-25T10:06:14.903Z,28.57
2022-08-25T10:08:56.363Z,28.61
2022-08-25T10:11:40.068Z,28.70
2022-08-25T10:14:28.482Z,28.82
2022-08-25T10:17:16.353Z,28.91
2022-08-25T10:19:44.137Z,28.95
2022-08-25T10:22:21.731Z,29.02
2022-08-25T10:24:49.429Z,29.10
2022-08-25T10:27:40.032Z,29.19
2022-08-25T10:30:23.759Z,29.29
2022-08-25T10:33:09.090Z,29.39
2022-08-25T10:35:41.865Z,29.46
2022-08-25T10:38:23.499Z,29.53
2022-08-25T10:41:02.685Z,29.61
2022-08-25T10:43:51.170Z,29.69
2022-08-25T10:46:27.830Z,29.80
2022-08-25T10:49:08.670Z,29.88
2022-08-25T10:51:45.995Z,29.94
2022-08-25T10:54:17.607Z,30.03
2022-08-25T10:57:01.981Z,30.12
2022-08-25T11:00:08.237Z,30.17
2022-08-25T11:02:47.695Z,30.26
2022-08-25T11:05:33.282Z,30.36
2022-08-25T11:08:06.439Z,30.39
2022-08-25T11:10:44.613Z,30.43
2022-08-25T11:13:48.738Z,30.46
2022-08-25T11:16:20.502Z,30.51
2022-08-25T11:19:05.567Z,30.58
2022-08-25T11:21:48.259Z,30.63
2022-08-25T11:24:23.139Z,30.67
2022-08-25T11:26:55.818Z,30.71
2022-08-25T11:29:27.196Z,30.75
2022-08-25T11:31:54.746Z,30.80
2022-08-25T11:34:23.290Z,30.83
2022-08-25T11:37:00.064Z,30.88
2022-08-25T11:39:36.248Z,30.95
2022-08-25T11:42:34.125Z,31.03
2022-08-25T11:45:38.743Z,31.13
2022-08-25T11:48:22.073Z,31.21
2022-08-25T11:51:04.775Z,31.30
2022-08-25T11:53:34.971Z,31.36
2022-08-25T11:56:33.086Z,31.50
2022-08-25T11:59:01.317Z,31.52
2022-08-25T12:01:48.118Z,31.59
2022-08-25T12:04:45.134Z,31.69
2022-08-25T12:07:25.915Z,31.72
2022-08-25T12:09:53.815Z,31.78
2022-08-25T12:12:37.278Z,31.81
2022-08-25T12:15:27.096Z,31.80
2022-08-25T12:18:13.019Z,31.79
2022-08-25T12:20:57.658Z,31.81
2022-08-25T12:23:44.960Z,31.78
2022-08-25T12:26:20.822Z,31.78
2022-08-25T12:29:01.221Z,31.77
2022-08-25T12:32:04.514Z,31.72
2022-08-25T12:34:52.013Z,31.71
2022-08-25T12:37:22.269Z,31.74
2022-08-25T12:39:48.931Z,31.75
2022-08-25T12:42:36.206Z,31.81
2022-08-25T12:45:25.712Z,31.84
2022-08-25T12:47:54.824Z,31.88
2022-08-25T12:50:27.580Z,31.94
2022-08-25T12:53:03.222Z,31.99
2022-08-25T12:55:30.289Z,32.05
2022-08-25T12:57:59.049Z,32.12
2022-08-25T13:00:37.700Z,32.18
2022-08-25T13:03:10.933Z,32.23
2022-08-25T13:06:20.097Z,32.31
2022-08-25T13:08:56.311Z,32.32
2022-08-25T13:11:46.872Z,32.39
2022-08-25T13:14:26.949Z,32.44
2022-08-25T13:16:55.680Z,32.50
2022-08-25T13:19:23.739Z,32.51
2022-08-25T13:21:51.514Z,32.52
2022-08-25T13:24:24.448Z,32.54
2022-08-25T13:26:55.541Z,32.55
2022-08-25T13:29:27.890Z,32.55
2022-08-25T13:32:09.272Z,32.61
2022-08-25T13:34:42.893Z,32.65
2022-08-25T13:37:31.221Z,32.69
2022-08-25T13:40:24.812Z,32.74
2022-08-25T13:43:01.258Z,32.77
2022-08-25T13:45:40.180Z,32.79
2022-08-25T13:48:23.001Z,32.78
2022-08-25T13:50:53.297Z,32.78
2022-08-25T13:53:26.292Z,32.80
2022-08-25T13:55:58.479Z,32.83
2022-08-25T13:58:45.137Z,32.85
2022-08-25T14:01:48.971Z,32.87
2022-08-25T14:04:21.736Z,32.85
2022-08-25T14:06:49.688Z,32.86
2022-08-25T14:09:28.213Z,32.85
2022-08-25T14:11:59.697Z,32.83
2022-08-25T14:14:26.658Z,32.85
2022-08-25T14:17:21.598Z,32.84
2022-08-25T14:19:55.746Z,32.89
2022-08-25T14:22:22.928Z,32.89
2022-08-25T14:24:52.708Z,32.90
2022-08-25T14:27:19.700Z,32.89
2022-08-25T14:29:50.942Z,32.89
2022-08-25T14:32:21.770Z,32.88
2022-08-25T14:34:48.662Z,32.89
2022-08-25T14:37:19.523Z,32.89
2022-08-25T14:39:49.379Z,32.93
2022-08-25T14:42:16.822Z,32.94
2022-08-25T14:44:44.360Z,32.97
2022-08-25T14:47:11.148Z,32.95
2022-08-25T14:49:43.975Z,32.96
2022-08-25T14:52:19.331Z,32.99
2022-08-25T14:54:49.413Z,32.99
2022-08-25T14:57:16.425Z,32.98
2022-08-25T14:59:43.494Z,33.00
2022-08-25T15:02:14.412Z,33.04
2022-08-25T15:04:49.110Z,33.03
2022-08-25T15:07:36.096Z,33.01
2022-08-25T15:10:09.863Z,33.01
2022-08-25T15:12:47.229Z,33.04
2022-08-25T15:15:16.030Z,33.03
2022-08-25T15:17:45.461Z,32.97
2022-08-25T15:20:12.931Z,32.92
2022-08-25T15:22:44.639Z,32.84
2022-08-25T15:25:12.238Z,32.75
2022-08-25T15:27:38.956Z,32.65
2022-08-25T15:30:06.189Z,32.58
2022-08-25T15:32:33.229Z,32.51
2022-08-25T15:35:03.434Z,32.44
2022-08-25T15:37:31.492Z,32.39
2022-08-25T15:39:59.087Z,32.31
2022-08-25T15:42:26.903Z,32.24
2022-08-25T15:44:54.709Z,32.19
2022-08-25T15:47:26.874Z,32.13
2022-08-25T15:50:07.390Z,32.09
2022-08-25T15:52:44.596Z,32.02
2022-08-25T15:55:14.887Z,31.99
2022-08-25T15:57:42.253Z,31.97
2022-08-25T16:00:12.110Z,31.96
2022-08-25T16:02:40.613Z,31.95
2022-08-25T16:05:09.640Z,31.91
2022-08-25T16:07:37.742Z,31.91
2022-08-25T16:10:05.845Z,31.91
2022-08-25T16:12:32.569Z,31.90
2022-08-25T16:14:59.199Z,31.90
2022-08-25T16:17:27.392Z,31.89
2022-08-25T16:19:54.203Z,31.88
2022-08-25T16:22:20.911Z,31.88
2022-08-25T16:24:48.016Z,31.88
2022-08-25T16:27:15.277Z,31.87
2022-08-25T16:29:44.007Z,31.89
2022-08-25T16:32:13.454Z,31.89
2022-08-25T16:34:41.440Z,31.89
2022-08-25T16:37:08.678Z,31.88
2022-08-25T16:39:36.668Z,31.87
2022-08-25T16:42:06.774Z,31.86
2022-08-25T16:44:34.582Z,31.81
2022-08-25T16:47:01.727Z,31.77
2022-08-25T16:49:28.451Z,31.74
2022-08-25T16:51:57.027Z,31.74
2022-08-25T16:54:42.921Z,31.73
2022-08-25T16:57:09.806Z,31.73
2022-08-25T16:59:36.461Z,31.72
2022-08-25T17:02:04.003Z,31.71
2022-08-25T17:04:32.594Z,31.71
2022-08-25T17:06:59.558Z,31.69
2022-08-25T17:09:26.238Z,31.65
2022-08-25T17:11:56.820Z,31.62
2022-08-25T17:14:24.366Z,31.56
2022-08-25T17:16:54.813Z,31.47
2022-08-25T17:19:23.784Z,31.42
2022-08-25T17:21:51.375Z,31.36
2022-08-25T17:24:20.998Z,31.31
2022-08-25T17:26:51.071Z,31.24
2022-08-25T17:29:19.772Z,31.13
2022-08-25T17:31:48.399Z,31.06
2022-08-25T17:34:16.880Z,30.92
2022-08-25T17:36:50.852Z,30.72
2022-08-25T17:39:19.619Z,30.57
2022-08-25T17:41:48.806Z,30.51
2022-08-25T17:44:17.715Z,30.47
2022-08-25T17:46:47.405Z,30.35
2022-08-25T17:49:15.457Z,30.26
2022-08-25T17:51:42.738Z,30.09
2022-08-25T17:54:09.447Z,30.01
2022-08-25T17:56:36.818Z,29.91
2022-08-25T17:59:03.514Z,29.77
2022-08-25T18:05:21.707Z,29.65
2022-08-25T18:07:48.363Z,29.54
2022-08-25T18:10:16.583Z,29.44
2022-08-25T18:12:43.703Z,29.30
2022-08-25T18:15:12.401Z,29.21
2022-08-25T18:17:41.155Z,29.13
2022-08-25T18:20:11.231Z,29.07
2022-08-25T18:22:38.736Z,29.03
2022-08-25T18:25:07.499Z,28.99
2022-08-25T18:27:34.939Z,28.89
2022-08-25T18:30:02.088Z,28.81
2022-08-25T18:32:33.712Z,28.76
2022-08-25T18:35:00.602Z,28.63
2022-08-25T18:37:46.007Z,28.54
2022-08-25T18:40:25.727Z,28.49
2022-08-25T18:42:58.935Z,28.39
2022-08-25T18:45:32.189Z,28.33
2022-08-25T18:48:00.984Z,28.25
2022-08-25T18:50:32.358Z,28.17
2022-08-25T18:53:00.429Z,28.05
2022-08-25T18:55:27.997Z,27.96
2022-08-25T18:57:55.979Z,27.84
2022-08-25T19:00:25.560Z,27.79
2022-08-25T19:02:56.063Z,27.76
2022-08-25T19:05:34.189Z,27.63
2022-08-25T19:08:03.032Z,27.58
2022-08-25T19:10:30.434Z,27.49
2022-08-25T19:12:58.258Z,27.38
2022-08-25T19:15:30.521Z,27.31
2022-08-25T19:17:58.854Z,27.21
2022-08-25T19:20:26.296Z,27.08
2022-08-25T19:22:52.990Z,26.95
2022-08-25T19:25:21.841Z,26.84
2022-08-25T19:27:49.587Z,26.67
2022-08-25T19:30:18.141Z,26.53
2022-08-25T19:32:47.725Z,26.45
2022-08-25T19:35:31.853Z,26.36
2022-08-25T19:38:00.664Z,26.25
2022-08-25T19:40:29.472Z,26.13
2022-08-25T19:42:56.397Z,26.03
2022-08-25T19:45:24.634Z,25.93
2022-08-25T19:47:51.810Z,25.89
2022-08-25T19:50:20.864Z,25.78
2022-08-25T19:52:49.957Z,25.69
2022-08-25T19:55:19.313Z,25.54
2022-08-25T19:57:46.841Z,25.51
2022-08-25T20:00:20.651Z,25.36
2022-08-25T20:02:47.582Z,25.32
2022-08-25T20:05:16.999Z,25.21
2022-08-25T20:07:52.665Z,25.14
2022-08-25T20:10:20.358Z,25.11
2022-08-25T20:12:47.434Z,24.99
2022-08-25T20:15:16.733Z,24.91
2022-08-25T20:17:43.482Z,24.84
2022-08-25T20:20:15.396Z,24.70
2022-08-25T20:22:42.527Z,24.70
2022-08-25T20:25:13.756Z,24.60
2022-08-25T20:27:43.946Z,24.51
2022-08-25T20:30:16.749Z,24.47
2022-08-25T20:32:44.347Z,24.29
2022-08-25T20:35:16.623Z,24.26
2022-08-25T20:37:45.449Z,24.17
2022-08-25T20:40:14.787Z,24.03
2022-08-25T20:42:43.615Z,24.00
2022-08-25T20:45:14.109Z,23.94
2022-08-25T20:47:40.977Z,23.88
2022-08-25T20:50:09.227Z,23.77
2022-08-25T20:52:42.475Z,23.72
2022-08-25T20:55:11.137Z,23.58
2022-08-25T20:57:39.343Z,23.47
2022-08-25T21:00:09.248Z,23.44
2022-08-25T21:02:36.502Z,23.41
2022-08-25T21:05:04.684Z,23.33
2022-08-25T21:07:31.500Z,23.27
2022-08-25T21:10:05.365Z,23.23
2022-08-25T21:12:32.226Z,23.13
2022-08-25T21:14:58.928Z,23.10
2022-08-25T21:17:26.190Z,23.01
2022-08-25T21:19:52.734Z,23.01
2022-08-25T21:22:19.444Z,23.02
2022-08-25T21:24:47.460Z,23.02
2022-08-25T21:27:14.513Z,22.90
2022-08-25T21:29:44.422Z,22.83
2022-08-25T21:32:11.672Z,22.77
2022-08-25T21:34:38.376Z,22.70
2022-08-25T21:37:05.404Z,22.59
2022-08-25T21:39:33.124Z,22.52
2022-08-25T21:42:00.662Z,22.53
2022-08-25T21:44:28.876Z,22.52
2022-08-25T21:46:56.142Z,22.45
2022-08-25T21:49:24.157Z,22.43
2022-08-25T21:52:00.418Z,22.44
2022-08-25T21:54:28.768Z,22.35
2022-08-25T21:56:59.880Z,22.29
2022-08-25T21:59:30.534Z,22.22
2022-08-25T22:01:59.947Z,22.20
2022-08-25T22:04:27.917Z,22.11
2022-08-25T22:06:55.045Z,22.10
2022-08-25T22:09:24.703Z,22.05
2022-08-25T22:11:52.841Z,21.98
2022-08-25T22:14:23.412Z,21.98
2022-08-25T22:16:52.058Z,22.01
2022-08-25T22:19:18.792Z,22.01
2022-08-25T22:21:50.381Z,21.99
2022-08-25T22:24:18.171Z,21.95
2022-08-25T22:26:47.485Z,21.94
2022-08-25T22:29:23.251Z,21.91
2022-08-25T22:31:54.129Z,21.86
2022-08-25T22:34:30.742Z,21.88
2022-08-25T22:36:59.747Z,21.85
2022-08-25T22:39:27.344Z,21.82
2022-08-25T22:41:53.999Z,21.76
2022-08-25T22:44:23.165Z,21.77
2022-08-25T22:46:49.907Z,21.79
2022-08-25T22:49:17.267Z,21.79
2022-08-25T22:51:44.366Z,21.78
2022-08-25T22:54:15.231Z,21.77
2022-08-25T22:56:42.299Z,21.73
2022-08-25T22:59:10.939Z,21.73
2022-08-25T23:01:37.619Z,21.71
2022-08-25T23:04:07.154Z,21.73
2022-08-25T23:06:36.612Z,21.73
2022-08-25T23:09:06.203Z,21.73
2022-08-25T23:11:32.957Z,21.72
2022-08-25T23:14:05.459Z,21.69
2022-08-25T23:16:33.212Z,21.70
2022-08-25T23:19:00.631Z,21.67
2022-08-25T23:21:46.449Z,21.63
2022-08-25T23:24:26.835Z,21.58
2022-08-25T23:26:58.466Z,21.57
2022-08-25T23:29:25.261Z,21.53
2022-08-25T23:31:52.168Z,21.51
2022-08-25T23:34:23.205Z,21.52
2022-08-25T23:36:50.504Z,21.50
2022-08-25T23:39:17.063Z,21.50
2022-08-25T23:41:43.641Z,21.43
2022-08-25T23:44:11.658Z,21.44
2022-08-25T23:46:44.497Z,21.42
2022-08-25T23:49:11.094Z,21.42
2022-08-25T23:51:38.005Z,21.43
2022-08-25T23:54:09.267Z,21.42
2022-08-25T23:56:44.526Z,21.42
2022-08-25T23:59:13.099Z,21.40
